Blairsden, California
Current Conditions -  °F | °C
As of 5:52 AM on Monday 20 Oct 2014 (Local Time) from KBLU Reporting Station
Clear Clear  
Wind Chill: 51°   Ceiling: Unl
Heat Index: 51°   Visibility: 10mi
Dew Point: 35°   Wind: 5mph
Humidity: 54%   Direction: 130°SE
Pressure: 30.02"   Gusts: NA
Location:  39.7722°N, 120.711°W
Report Text: KBLU 201252Z AUTO 13004KT 10SM CLR 11/02 A3002 RMK AO2 SLP107 T01060017
Loading
Personal Weather Stations






























Interactive Weather Map
Tropical Storm Tracking
New forecast layout! Learn more

10-Day Weather Forecast

Advertisements
Track Severe Weather on mobile